This is the latest recevied weather packets stored in our database for station/object VE3DVC. If no packets are shown the sender has not sent any weather packets the latest 10 day(s).
| Time | Temp. | Humidity | Pressure | Rain* | Wind** | Luminosity | Snow |
|---|---|---|---|---|---|---|---|
| 1777828467 | 12.78° C | 60% | 1011.6 hPa | 0 mm | - | - | - |
| 1777827748 | 12.22° C | 60% | 1011.8 hPa | 0 mm | - | - | - |
| 1777827027 | 12.22° C | 58% | 1011.9 hPa | 0 mm | - | - | - |
| 1777826308 | 11.67° C | 60% | 1012.1 hPa | 0 mm | - | - | - |
| 1777825588 | 12.22° C | 58% | 1012.3 hPa | 0 mm | - | - | - |
| 1777824867 | 11.67° C | 56% | 1012.4 hPa | 0 mm | - | - | - |
| 1777824147 | 12.22° C | 54% | 1012.3 hPa | 0 mm | - | - | - |
| 1777823427 | 12.22° C | 52% | 1012.5 hPa | 0 mm | - | - | - |
| 1777822708 | 11.67° C | 53% | 1012.6 hPa | 0 mm | - | - | - |
| 1777821988 | 11.67° C | 57% | 1012.9 hPa | 0 mm | - | - | - |
| 1777821267 | 11.11° C | 60% | 1012.9 hPa | 0 mm | - | - | - |
| 1777820547 | 11.11° C | 63% | 1012.9 hPa | 0 mm | - | - | - |
| 1777819827 | 11.11° C | 62% | 1013.1 hPa | 0 mm | - | - | - |
| 1777819107 | 11.11° C | 59% | 1013.1 hPa | 0 mm | - | - | - |
| 1777818387 | 10.56° C | 54% | 1013.3 hPa | 0 mm | - | - | - |
| 1777817667 | 10° C | 54% | 1013.3 hPa | 0 mm | - | - | - |
| 1777816947 | 10° C | 53% | 1013.4 hPa | 0 mm | - | - | - |
| 1777816228 | 9.44° C | 58% | 1013.5 hPa | 0 mm | - | - | - |
| 1777815508 | 8.89° C | 61% | 1013.7 hPa | 0 mm | - | - | - |
| 1777814788 | 7.78° C | 63% | 1013.8 hPa | 0 mm | - | - | - |
| 1777813827 | 7.22° C | 65% | 1014.1 hPa | 0 mm | - | - | - |
| 1777813107 | 6.67° C | 69% | 1014 hPa | 0 mm | - | - | - |
| 1777812386 | 6.67° C | 71% | 1013.9 hPa | 0 mm | - | - | - |
| 1777811667 | 6.11° C | 74% | 1014 hPa | 0 mm | - | - | - |
| 1777810291 | 5° C | 86% | 1013.9 hPa | 0 mm | - | - | - |
* Rain latest hour (hover to see other rain measurements)
** Current wind speed in m/s (hover to see current wind gust speed)